sensor_id;sensor_type;location;lat;lon;timestamp;pressure;altitude;pressure_sealevel;temperature
69590;BMP180;56792;50.644;17.984;2023-08-08T00:00:24;99321.60;;;14.30
69590;BMP180;56792;50.644;17.984;2023-08-08T00:02:55;99324.60;;;14.30
69590;BMP180;56792;50.644;17.984;2023-08-08T00:05:27;99324.20;;;14.20
69590;BMP180;56792;50.644;17.984;2023-08-08T00:07:58;99325.80;;;14.20
69590;BMP180;56792;50.644;17.984;2023-08-08T00:10:29;99329.20;;;14.20
69590;BMP180;56792;50.644;17.984;2023-08-08T00:13:00;99327.80;;;14.20
69590;BMP180;56792;50.644;17.984;2023-08-08T00:15:32;99324.80;;;14.20
69590;BMP180;56792;50.644;17.984;2023-08-08T00:18:03;99328.00;;;14.20
69590;BMP180;56792;50.644;17.984;2023-08-08T00:20:34;99329.00;;;14.12
69590;BMP180;56792;50.644;17.984;2023-08-08T00:23:06;99329.40;;;14.10
69590;BMP180;56792;50.644;17.984;2023-08-08T00:25:38;99330.60;;;14.10
69590;BMP180;56792;50.644;17.984;2023-08-08T00:28:09;99335.80;;;14.10
69590;BMP180;56792;50.644;17.984;2023-08-08T00:30:40;99335.20;;;14.10
69590;BMP180;56792;50.644;17.984;2023-08-08T00:33:11;99334.60;;;14.08
69590;BMP180;56792;50.644;17.984;2023-08-08T00:35:42;99336.60;;;14.00
69590;BMP180;56792;50.644;17.984;2023-08-08T00:38:14;99335.20;;;14.00
69590;BMP180;56792;50.644;17.984;2023-08-08T00:40:46;99334.40;;;14.00
69590;BMP180;56792;50.644;17.984;2023-08-08T00:43:17;99331.80;;;13.90
69590;BMP180;56792;50.644;17.984;2023-08-08T00:45:48;99331.00;;;13.90
69590;BMP180;56792;50.644;17.984;2023-08-08T00:48:19;99342.60;;;13.90
69590;BMP180;56792;50.644;17.984;2023-08-08T00:50:52;99337.80;;;13.82
69590;BMP180;56792;50.644;17.984;2023-08-08T00:53:24;99337.00;;;13.80
69590;BMP180;56792;50.644;17.984;2023-08-08T00:55:57;99339.20;;;13.80
69590;BMP180;56792;50.644;17.984;2023-08-08T00:58:29;99339.00;;;13.76
69590;BMP180;56792;50.644;17.984;2023-08-08T01:01:00;99339.20;;;13.70
69590;BMP180;56792;50.644;17.984;2023-08-08T01:03:31;99336.40;;;13.70
69590;BMP180;56792;50.644;17.984;2023-08-08T01:06:10;99339.80;;;13.64
69590;BMP180;56792;50.644;17.984;2023-08-08T01:08:51;99341.20;;;13.60
69590;BMP180;56792;50.644;17.984;2023-08-08T01:11:23;99343.80;;;13.60
69590;BMP180;56792;50.644;17.984;2023-08-08T01:13:57;99345.00;;;13.60
69590;BMP180;56792;50.644;17.984;2023-08-08T01:16:29;99350.80;;;13.60
69590;BMP180;56792;50.644;17.984;2023-08-08T01:19:01;99348.40;;;13.60
69590;BMP180;56792;50.644;17.984;2023-08-08T01:21:37;99347.00;;;13.52
69590;BMP180;56792;50.644;17.984;2023-08-08T01:24:21;99348.60;;;13.50
69590;BMP180;56792;50.644;17.984;2023-08-08T01:26:53;99349.60;;;13.50
69590;BMP180;56792;50.644;17.984;2023-08-08T01:29:24;99349.40;;;13.48
69590;BMP180;56792;50.644;17.984;2023-08-08T01:31:55;99352.40;;;13.46
69590;BMP180;56792;50.644;17.984;2023-08-08T01:34:26;99345.20;;;13.40
69590;BMP180;56792;50.644;17.984;2023-08-08T01:37:05;99345.00;;;13.40
69590;BMP180;56792;50.644;17.984;2023-08-08T01:39:39;99348.60;;;13.40
69590;BMP180;56792;50.644;17.984;2023-08-08T01:42:12;99347.40;;;13.40
69590;BMP180;56792;50.644;17.984;2023-08-08T01:44:43;99350.00;;;13.30
69590;BMP180;56792;50.644;17.984;2023-08-08T01:47:15;99348.20;;;13.30
69590;BMP180;56792;50.644;17.984;2023-08-08T01:49:46;99345.40;;;13.30
69590;BMP180;56792;50.644;17.984;2023-08-08T01:52:17;99347.60;;;13.30
69590;BMP180;56792;50.644;17.984;2023-08-08T01:54:48;99341.80;;;13.30
69590;BMP180;56792;50.644;17.984;2023-08-08T01:57:19;99340.40;;;13.30
69590;BMP180;56792;50.644;17.984;2023-08-08T01:59:51;99340.00;;;13.20
69590;BMP180;56792;50.644;17.984;2023-08-08T02:02:22;99338.60;;;13.20
69590;BMP180;56792;50.644;17.984;2023-08-08T02:04:53;99339.60;;;13.20
69590;BMP180;56792;50.644;17.984;2023-08-08T02:07:24;99338.40;;;13.20
69590;BMP180;56792;50.644;17.984;2023-08-08T02:09:56;99335.60;;;13.20
69590;BMP180;56792;50.644;17.984;2023-08-08T02:12:28;99336.80;;;13.10
69590;BMP180;56792;50.644;17.984;2023-08-08T02:15:00;99338.00;;;13.10
69590;BMP180;56792;50.644;17.984;2023-08-08T02:17:32;99334.80;;;13.10
69590;BMP180;56792;50.644;17.984;2023-08-08T02:20:03;99334.00;;;13.10
69590;BMP180;56792;50.644;17.984;2023-08-08T02:22:35;99333.80;;;13.10
69590;BMP180;56792;50.644;17.984;2023-08-08T02:25:07;99334.20;;;13.10
69590;BMP180;56792;50.644;17.984;2023-08-08T02:27:38;99343.60;;;13.00
69590;BMP180;56792;50.644;17.984;2023-08-08T02:30:15;99344.20;;;13.00
69590;BMP180;56792;50.644;17.984;2023-08-08T02:32:47;99342.80;;;13.00
69590;BMP180;56792;50.644;17.984;2023-08-08T02:35:18;99347.00;;;13.00
69590;BMP180;56792;50.644;17.984;2023-08-08T02:37:49;99344.20;;;12.98
69590;BMP180;56792;50.644;17.984;2023-08-08T02:40:20;99353.20;;;12.94
69590;BMP180;56792;50.644;17.984;2023-08-08T02:42:53;99350.80;;;12.90
69590;BMP180;56792;50.644;17.984;2023-08-08T02:45:25;99354.00;;;12.90
69590;BMP180;56792;50.644;17.984;2023-08-08T02:47:56;99351.20;;;12.90
69590;BMP180;56792;50.644;17.984;2023-08-08T02:50:27;99350.00;;;12.84
69590;BMP180;56792;50.644;17.984;2023-08-08T02:53:00;99357.40;;;12.80
69590;BMP180;56792;50.644;17.984;2023-08-08T02:55:34;99362.20;;;12.80
69590;BMP180;56792;50.644;17.984;2023-08-08T02:58:06;99363.60;;;12.80
69590;BMP180;56792;50.644;17.984;2023-08-08T03:00:38;99360.20;;;12.72
69590;BMP180;56792;50.644;17.984;2023-08-08T03:03:11;99357.60;;;12.70
69590;BMP180;56792;50.644;17.984;2023-08-08T03:05:46;99360.40;;;12.74
69590;BMP180;56792;50.644;17.984;2023-08-08T03:08:19;99363.00;;;12.70
69590;BMP180;56792;50.644;17.984;2023-08-08T03:10:50;99364.80;;;12.70
69590;BMP180;56792;50.644;17.984;2023-08-08T03:13:21;99369.40;;;12.70
69590;BMP180;56792;50.644;17.984;2023-08-08T03:15:52;99371.80;;;12.70
69590;BMP180;56792;50.644;17.984;2023-08-08T03:18:24;99372.40;;;12.70
69590;BMP180;56792;50.644;17.984;2023-08-08T03:20:56;99371.40;;;12.68
69590;BMP180;56792;50.644;17.984;2023-08-08T03:23:27;99370.60;;;12.60
69590;BMP180;56792;50.644;17.984;2023-08-08T03:25:58;99369.20;;;12.60
69590;BMP180;56792;50.644;17.984;2023-08-08T03:28:30;99373.80;;;12.60
69590;BMP180;56792;50.644;17.984;2023-08-08T03:31:01;99369.60;;;12.50
69590;BMP180;56792;50.644;17.984;2023-08-08T03:33:34;99377.20;;;12.50
69590;BMP180;56792;50.644;17.984;2023-08-08T03:36:06;99378.80;;;12.50
69590;BMP180;56792;50.644;17.984;2023-08-08T03:38:37;99377.40;;;12.44
69590;BMP180;56792;50.644;17.984;2023-08-08T03:41:09;99381.00;;;12.40
69590;BMP180;56792;50.644;17.984;2023-08-08T03:43:40;99387.40;;;12.40
69590;BMP180;56792;50.644;17.984;2023-08-08T03:46:11;99389.00;;;12.40
69590;BMP180;56792;50.644;17.984;2023-08-08T03:48:42;99389.00;;;12.40
69590;BMP180;56792;50.644;17.984;2023-08-08T03:51:13;99394.60;;;12.38
69590;BMP180;56792;50.644;17.984;2023-08-08T03:53:44;99398.00;;;12.30
69590;BMP180;56792;50.644;17.984;2023-08-08T03:56:15;99401.80;;;12.30
69590;BMP180;56792;50.644;17.984;2023-08-08T03:58:46;99405.20;;;12.30
69590;BMP180;56792;50.644;17.984;2023-08-08T04:01:17;99408.20;;;12.30
69590;BMP180;56792;50.644;17.984;2023-08-08T04:03:49;99412.20;;;12.30
69590;BMP180;56792;50.644;17.984;2023-08-08T04:06:20;99416.60;;;12.30
69590;BMP180;56792;50.644;17.984;2023-08-08T04:08:51;99425.40;;;12.30
69590;BMP180;56792;50.644;17.984;2023-08-08T04:11:22;99430.60;;;12.30
69590;BMP180;56792;50.644;17.984;2023-08-08T04:13:54;99438.60;;;12.30
69590;BMP180;56792;50.644;17.984;2023-08-08T04:16:25;99440.60;;;12.30
69590;BMP180;56792;50.644;17.984;2023-08-08T04:18:56;99444.00;;;12.30
69590;BMP180;56792;50.644;17.984;2023-08-08T04:21:29;99445.20;;;12.30
69590;BMP180;56792;50.644;17.984;2023-08-08T04:24:02;99446.20;;;12.30
69590;BMP180;56792;50.644;17.984;2023-08-08T04:26:33;99445.40;;;12.30
69590;BMP180;56792;50.644;17.984;2023-08-08T04:29:04;99448.00;;;12.30
69590;BMP180;56792;50.644;17.984;2023-08-08T04:31:36;99447.00;;;12.38
69590;BMP180;56792;50.644;17.984;2023-08-08T04:34:07;99447.40;;;12.40
69590;BMP180;56792;50.644;17.984;2023-08-08T04:36:38;99449.20;;;12.40
69590;BMP180;56792;50.644;17.984;2023-08-08T04:39:09;99447.80;;;12.40
69590;BMP180;56792;50.644;17.984;2023-08-08T04:41:40;99450.60;;;12.44
69590;BMP180;56792;50.644;17.984;2023-08-08T04:44:11;99452.40;;;12.50
69590;BMP180;56792;50.644;17.984;2023-08-08T04:46:42;99456.40;;;12.50
69590;BMP180;56792;50.644;17.984;2023-08-08T04:49:13;99458.20;;;12.52
69590;BMP180;56792;50.644;17.984;2023-08-08T04:51:44;99459.40;;;12.60
69590;BMP180;56792;50.644;17.984;2023-08-08T04:54:15;99460.00;;;12.60
69590;BMP180;56792;50.644;17.984;2023-08-08T04:56:46;99461.40;;;12.70
69590;BMP180;56792;50.644;17.984;2023-08-08T04:59:17;99465.00;;;12.70
69590;BMP180;56792;50.644;17.984;2023-08-08T05:01:48;99473.80;;;12.80
69590;BMP180;56792;50.644;17.984;2023-08-08T05:04:20;99472.20;;;12.80
69590;BMP180;56792;50.644;17.984;2023-08-08T05:06:51;99477.60;;;12.90
69590;BMP180;56792;50.644;17.984;2023-08-08T05:09:22;99473.60;;;12.90
69590;BMP180;56792;50.644;17.984;2023-08-08T05:11:56;99475.80;;;13.00
69590;BMP180;56792;50.644;17.984;2023-08-08T05:14:27;99484.40;;;13.00
69590;BMP180;56792;50.644;17.984;2023-08-08T05:16:58;99482.60;;;13.10
69590;BMP180;56792;50.644;17.984;2023-08-08T05:19:29;99482.20;;;13.18
69590;BMP180;56792;50.644;17.984;2023-08-08T05:22:00;99487.00;;;13.20
69590;BMP180;56792;50.644;17.984;2023-08-08T05:24:31;99482.20;;;13.30
69590;BMP180;56792;50.644;17.984;2023-08-08T05:27:02;99487.20;;;13.38
69590;BMP180;56792;50.644;17.984;2023-08-08T05:29:34;99480.60;;;13.40
69590;BMP180;56792;50.644;17.984;2023-08-08T05:32:09;99485.20;;;13.50
69590;BMP180;56792;50.644;17.984;2023-08-08T05:34:40;99483.60;;;13.60
69590;BMP180;56792;50.644;17.984;2023-08-08T05:37:11;99494.00;;;13.68
69590;BMP180;56792;50.644;17.984;2023-08-08T05:39:42;99498.20;;;13.76
69590;BMP180;56792;50.644;17.984;2023-08-08T05:42:13;99499.60;;;13.86
69590;BMP180;56792;50.644;17.984;2023-08-08T05:44:44;99500.40;;;13.90
69590;BMP180;56792;50.644;17.984;2023-08-08T05:47:15;99500.60;;;14.00
69590;BMP180;56792;50.644;17.984;2023-08-08T05:49:46;99499.80;;;14.10
69590;BMP180;56792;50.644;17.984;2023-08-08T05:52:17;99503.40;;;14.18
69590;BMP180;56792;50.644;17.984;2023-08-08T05:54:48;99501.80;;;14.26
69590;BMP180;56792;50.644;17.984;2023-08-08T05:57:19;99498.00;;;14.30
69590;BMP180;56792;50.644;17.984;2023-08-08T05:59:51;99505.00;;;14.40
69590;BMP180;56792;50.644;17.984;2023-08-08T06:02:23;99501.80;;;14.50
69590;BMP180;56792;50.644;17.984;2023-08-08T06:04:54;99498.40;;;14.58
69590;BMP180;56792;50.644;17.984;2023-08-08T06:07:25;99494.80;;;14.68
69590;BMP180;56792;50.644;17.984;2023-08-08T06:09:56;99489.40;;;14.70
69590;BMP180;56792;50.644;17.984;2023-08-08T06:12:27;99491.00;;;14.80
69590;BMP180;56792;50.644;17.984;2023-08-08T06:14:58;99484.20;;;14.80
69590;BMP180;56792;50.644;17.984;2023-08-08T06:17:29;99485.80;;;14.90
69590;BMP180;56792;50.644;17.984;2023-08-08T06:20:00;99489.20;;;14.90
69590;BMP180;56792;50.644;17.984;2023-08-08T06:22:31;99486.00;;;14.90
69590;BMP180;56792;50.644;17.984;2023-08-08T06:25:02;99484.60;;;15.00
69590;BMP180;56792;50.644;17.984;2023-08-08T06:27:33;99487.40;;;15.00
69590;BMP180;56792;50.644;17.984;2023-08-08T06:30:06;99490.40;;;15.08
69590;BMP180;56792;50.644;17.984;2023-08-08T06:32:38;99499.20;;;15.12
69590;BMP180;56792;50.644;17.984;2023-08-08T06:35:10;99488.60;;;15.30
69590;BMP180;56792;50.644;17.984;2023-08-08T06:37:41;99502.80;;;15.50
69590;BMP180;56792;50.644;17.984;2023-08-08T06:40:14;99496.40;;;15.60
69590;BMP180;56792;50.644;17.984;2023-08-08T06:42:45;99502.40;;;15.70
69590;BMP180;56792;50.644;17.984;2023-08-08T06:45:16;99496.80;;;15.90
69590;BMP180;56792;50.644;17.984;2023-08-08T06:47:47;99498.40;;;16.10
69590;BMP180;56792;50.644;17.984;2023-08-08T06:50:19;99492.40;;;16.20
69590;BMP180;56792;50.644;17.984;2023-08-08T06:52:50;99490.60;;;16.38
69590;BMP180;56792;50.644;17.984;2023-08-08T06:55:21;99497.60;;;16.48
69590;BMP180;56792;50.644;17.984;2023-08-08T06:57:52;99491.80;;;16.50
69590;BMP180;56792;50.644;17.984;2023-08-08T07:00:23;99491.20;;;16.50
69590;BMP180;56792;50.644;17.984;2023-08-08T07:02:56;99488.60;;;16.50
69590;BMP180;56792;50.644;17.984;2023-08-08T07:05:28;99495.80;;;16.50
69590;BMP180;56792;50.644;17.984;2023-08-08T07:07:59;99495.60;;;16.58
69590;BMP180;56792;50.644;17.984;2023-08-08T07:10:31;99491.60;;;16.76
69590;BMP180;56792;50.644;17.984;2023-08-08T07:13:02;99498.40;;;16.90
69590;BMP180;56792;50.644;17.984;2023-08-08T07:15:33;99491.60;;;16.90
69590;BMP180;56792;50.644;17.984;2023-08-08T07:18:04;99499.80;;;16.86
69590;BMP180;56792;50.644;17.984;2023-08-08T07:20:36;99500.40;;;16.90
69590;BMP180;56792;50.644;17.984;2023-08-08T07:23:07;99493.40;;;17.10
69590;BMP180;56792;50.644;17.984;2023-08-08T07:25:38;99494.40;;;17.30
69590;BMP180;56792;50.644;17.984;2023-08-08T07:28:10;99494.40;;;17.40
69590;BMP180;56792;50.644;17.984;2023-08-08T07:30:41;99494.00;;;17.40
69590;BMP180;56792;50.644;17.984;2023-08-08T07:33:12;99491.20;;;17.30
69590;BMP180;56792;50.644;17.984;2023-08-08T07:35:44;99488.00;;;17.20
69590;BMP180;56792;50.644;17.984;2023-08-08T07:38:15;99489.40;;;17.20
69590;BMP180;56792;50.644;17.984;2023-08-08T07:40:46;99495.80;;;17.20
69590;BMP180;56792;50.644;17.984;2023-08-08T07:43:18;99493.20;;;17.30
69590;BMP180;56792;50.644;17.984;2023-08-08T07:45:50;99482.40;;;17.48
69590;BMP180;56792;50.644;17.984;2023-08-08T07:48:21;99488.60;;;17.66
69590;BMP180;56792;50.644;17.984;2023-08-08T07:50:52;99482.20;;;17.70
69590;BMP180;56792;50.644;17.984;2023-08-08T07:53:23;99493.20;;;17.80
69590;BMP180;56792;50.644;17.984;2023-08-08T07:55:54;99489.40;;;17.84
69590;BMP180;56792;50.644;17.984;2023-08-08T07:58:25;99482.80;;;18.00
69590;BMP180;56792;50.644;17.984;2023-08-08T08:00:56;99479.00;;;18.18
69590;BMP180;56792;50.644;17.984;2023-08-08T08:03:28;99478.60;;;18.40
69590;BMP180;56792;50.644;17.984;2023-08-08T08:06:00;99489.40;;;18.60
69590;BMP180;56792;50.644;17.984;2023-08-08T08:08:31;99483.40;;;18.60
69590;BMP180;56792;50.644;17.984;2023-08-08T08:11:04;99482.80;;;18.50
69590;BMP180;56792;50.644;17.984;2023-08-08T08:13:35;99479.80;;;18.50
69590;BMP180;56792;50.644;17.984;2023-08-08T08:16:06;99490.00;;;18.40
69590;BMP180;56792;50.644;17.984;2023-08-08T08:18:37;99482.80;;;18.40
69590;BMP180;56792;50.644;17.984;2023-08-08T08:21:08;99488.40;;;18.40
69590;BMP180;56792;50.644;17.984;2023-08-08T08:23:39;99493.20;;;18.40
69590;BMP180;56792;50.644;17.984;2023-08-08T08:26:10;99482.80;;;18.40
69590;BMP180;56792;50.644;17.984;2023-08-08T08:28:41;99486.80;;;18.40
69590;BMP180;56792;50.644;17.984;2023-08-08T08:31:12;99489.60;;;18.50
69590;BMP180;56792;50.644;17.984;2023-08-08T08:33:43;99493.20;;;18.60
69590;BMP180;56792;50.644;17.984;2023-08-08T08:36:15;99485.00;;;18.70
69590;BMP180;56792;50.644;17.984;2023-08-08T08:38:46;99490.60;;;19.00
69590;BMP180;56792;50.644;17.984;2023-08-08T08:41:23;99495.40;;;19.10
69590;BMP180;56792;50.644;17.984;2023-08-08T08:43:56;99500.40;;;18.90
69590;BMP180;56792;50.644;17.984;2023-08-08T08:46:30;99492.00;;;18.90
69590;BMP180;56792;50.644;17.984;2023-08-08T08:49:03;99501.00;;;19.00
69590;BMP180;56792;50.644;17.984;2023-08-08T08:51:38;99493.40;;;19.00
69590;BMP180;56792;50.644;17.984;2023-08-08T08:54:10;99489.60;;;19.04
69590;BMP180;56792;50.644;17.984;2023-08-08T08:56:41;99491.00;;;19.00
69590;BMP180;56792;50.644;17.984;2023-08-08T08:59:12;99495.00;;;18.92
69590;BMP180;56792;50.644;17.984;2023-08-08T09:01:44;99500.40;;;19.20
69590;BMP180;56792;50.644;17.984;2023-08-08T09:04:19;99494.80;;;19.30
69590;BMP180;56792;50.644;17.984;2023-08-08T09:06:52;99495.00;;;19.40
69590;BMP180;56792;50.644;17.984;2023-08-08T09:09:23;99494.40;;;19.58
69590;BMP180;56792;50.644;17.984;2023-08-08T09:11:55;99491.60;;;19.84
69590;BMP180;56792;50.644;17.984;2023-08-08T09:14:27;99501.20;;;20.08
69590;BMP180;56792;50.644;17.984;2023-08-08T09:16:58;99496.60;;;20.00
69590;BMP180;56792;50.644;17.984;2023-08-08T09:19:29;99503.20;;;20.10
69590;BMP180;56792;50.644;17.984;2023-08-08T09:22:01;99503.60;;;20.20
69590;BMP180;56792;50.644;17.984;2023-08-08T09:24:32;99504.60;;;20.40
69590;BMP180;56792;50.644;17.984;2023-08-08T09:27:03;99512.00;;;20.70
69590;BMP180;56792;50.644;17.984;2023-08-08T09:29:35;99518.00;;;20.80
69590;BMP180;56792;50.644;17.984;2023-08-08T09:32:08;99515.60;;;20.60
69590;BMP180;56792;50.644;17.984;2023-08-08T09:34:42;99519.60;;;20.50
69590;BMP180;56792;50.644;17.984;2023-08-08T09:37:13;99518.80;;;20.40
69590;BMP180;56792;50.644;17.984;2023-08-08T09:39:44;99515.80;;;20.40
69590;BMP180;56792;50.644;17.984;2023-08-08T09:42:16;99509.00;;;20.60
69590;BMP180;56792;50.644;17.984;2023-08-08T09:44:47;99515.00;;;20.90
69590;BMP180;56792;50.644;17.984;2023-08-08T09:47:20;99512.20;;;20.90
69590;BMP180;56792;50.644;17.984;2023-08-08T09:49:51;99503.00;;;20.90
69590;BMP180;56792;50.644;17.984;2023-08-08T09:52:22;99505.80;;;21.10
69590;BMP180;56792;50.644;17.984;2023-08-08T09:54:55;99513.60;;;21.20
69590;BMP180;56792;50.644;17.984;2023-08-08T09:57:28;99513.00;;;21.20
69590;BMP180;56792;50.644;17.984;2023-08-08T10:00:00;99513.60;;;21.02
69590;BMP180;56792;50.644;17.984;2023-08-08T10:02:36;99512.80;;;20.94
69590;BMP180;56792;50.644;17.984;2023-08-08T10:05:10;99512.00;;;21.04
69590;BMP180;56792;50.644;17.984;2023-08-08T10:07:43;99519.00;;;21.24
69590;BMP180;56792;50.644;17.984;2023-08-08T10:10:14;99510.40;;;21.30
69590;BMP180;56792;50.644;17.984;2023-08-08T10:12:49;99509.20;;;21.30
69590;BMP180;56792;50.644;17.984;2023-08-08T10:15:20;99500.20;;;21.30
69590;BMP180;56792;50.644;17.984;2023-08-08T10:17:59;99511.60;;;21.52
69590;BMP180;56792;50.644;17.984;2023-08-08T10:20:34;99502.00;;;21.80
69590;BMP180;56792;50.644;17.984;2023-08-08T10:23:08;99499.80;;;21.92
69590;BMP180;56792;50.644;17.984;2023-08-08T10:25:45;99505.40;;;21.80
69590;BMP180;56792;50.644;17.984;2023-08-08T10:28:20;99495.20;;;21.94
69590;BMP180;56792;50.644;17.984;2023-08-08T10:30:59;99504.80;;;22.22
69590;BMP180;56792;50.644;17.984;2023-08-08T10:33:42;99502.80;;;22.78
69590;BMP180;56792;50.644;17.984;2023-08-08T10:36:14;99501.20;;;23.20
69590;BMP180;56792;50.644;17.984;2023-08-08T10:38:46;99502.80;;;23.86
69590;BMP180;56792;50.644;17.984;2023-08-08T10:41:21;99498.00;;;23.92
69590;BMP180;56792;50.644;17.984;2023-08-08T10:43:55;99504.60;;;23.74
69590;BMP180;56792;50.644;17.984;2023-08-08T10:46:29;99499.60;;;23.48
69590;BMP180;56792;50.644;17.984;2023-08-08T10:49:04;99502.60;;;22.98
69590;BMP180;56792;50.644;17.984;2023-08-08T10:51:39;99495.20;;;22.50
69590;BMP180;56792;50.644;17.984;2023-08-08T10:54:18;99484.60;;;22.20
69590;BMP180;56792;50.644;17.984;2023-08-08T10:56:55;99482.40;;;22.14
69590;BMP180;56792;50.644;17.984;2023-08-08T10:59:36;99485.80;;;22.04
69590;BMP180;56792;50.644;17.984;2023-08-08T11:02:07;99496.20;;;22.00
69590;BMP180;56792;50.644;17.984;2023-08-08T11:04:39;99492.20;;;21.80
69590;BMP180;56792;50.644;17.984;2023-08-08T11:07:12;99492.80;;;21.60
69590;BMP180;56792;50.644;17.984;2023-08-08T11:09:45;99489.20;;;21.40
69590;BMP180;56792;50.644;17.984;2023-08-08T11:12:19;99493.20;;;21.40
69590;BMP180;56792;50.644;17.984;2023-08-08T11:14:50;99496.20;;;21.40
69590;BMP180;56792;50.644;17.984;2023-08-08T11:17:21;99493.00;;;21.30
69590;BMP180;56792;50.644;17.984;2023-08-08T11:19:53;99487.80;;;21.10
69590;BMP180;56792;50.644;17.984;2023-08-08T11:22:25;99486.40;;;20.98
69590;BMP180;56792;50.644;17.984;2023-08-08T11:24:58;99495.20;;;20.70
69590;BMP180;56792;50.644;17.984;2023-08-08T11:27:33;99489.00;;;20.56
69590;BMP180;56792;50.644;17.984;2023-08-08T11:30:05;99497.60;;;20.30
69590;BMP180;56792;50.644;17.984;2023-08-08T11:32:38;99494.60;;;20.18
69590;BMP180;56792;50.644;17.984;2023-08-08T11:35:10;99497.60;;;20.00
69590;BMP180;56792;50.644;17.984;2023-08-08T11:37:41;99493.40;;;20.00
69590;BMP180;56792;50.644;17.984;2023-08-08T11:40:13;99494.80;;;19.90
69590;BMP180;56792;50.644;17.984;2023-08-08T11:42:46;99496.20;;;19.80
69590;BMP180;56792;50.644;17.984;2023-08-08T11:45:20;99503.00;;;19.80
69590;BMP180;56792;50.644;17.984;2023-08-08T11:47:55;99498.20;;;19.70
69590;BMP180;56792;50.644;17.984;2023-08-08T11:50:27;99495.20;;;19.60
69590;BMP180;56792;50.644;17.984;2023-08-08T11:53:02;99496.60;;;19.80
69590;BMP180;56792;50.644;17.984;2023-08-08T11:55:33;99492.00;;;20.00
69590;BMP180;56792;50.644;17.984;2023-08-08T11:58:07;99492.40;;;20.20
69590;BMP180;56792;50.644;17.984;2023-08-08T12:00:44;99495.40;;;20.40
69590;BMP180;56792;50.644;17.984;2023-08-08T12:03:17;99483.60;;;20.50
69590;BMP180;56792;50.644;17.984;2023-08-08T12:05:50;99486.60;;;20.60
69590;BMP180;56792;50.644;17.984;2023-08-08T12:08:22;99484.00;;;20.82
69590;BMP180;56792;50.644;17.984;2023-08-08T12:10:55;99480.20;;;21.58
69590;BMP180;56792;50.644;17.984;2023-08-08T12:13:28;99491.60;;;22.00
69590;BMP180;56792;50.644;17.984;2023-08-08T12:16:00;99485.00;;;22.00
69590;BMP180;56792;50.644;17.984;2023-08-08T12:18:32;99501.20;;;22.00
69590;BMP180;56792;50.644;17.984;2023-08-08T12:21:04;99495.60;;;22.00
69590;BMP180;56792;50.644;17.984;2023-08-08T12:23:36;99492.80;;;22.00
69590;BMP180;56792;50.644;17.984;2023-08-08T12:26:08;99488.00;;;22.10
69590;BMP180;56792;50.644;17.984;2023-08-08T12:28:39;99484.20;;;21.80
69590;BMP180;56792;50.644;17.984;2023-08-08T12:31:10;99490.20;;;21.54
69590;BMP180;56792;50.644;17.984;2023-08-08T12:33:41;99490.40;;;21.50
69590;BMP180;56792;50.644;17.984;2023-08-08T12:36:12;99496.80;;;21.30
69590;BMP180;56792;50.644;17.984;2023-08-08T12:38:43;99498.00;;;21.16
69590;BMP180;56792;50.644;17.984;2023-08-08T12:41:15;99497.40;;;21.10
69590;BMP180;56792;50.644;17.984;2023-08-08T12:43:46;99495.60;;;21.00
69590;BMP180;56792;50.644;17.984;2023-08-08T12:46:18;99501.20;;;21.00
69590;BMP180;56792;50.644;17.984;2023-08-08T12:48:50;99500.40;;;20.90
69590;BMP180;56792;50.644;17.984;2023-08-08T12:51:22;99502.60;;;20.80
69590;BMP180;56792;50.644;17.984;2023-08-08T12:53:53;99504.60;;;20.70
69590;BMP180;56792;50.644;17.984;2023-08-08T12:56:24;99501.60;;;20.70
69590;BMP180;56792;50.644;17.984;2023-08-08T12:58:55;99493.00;;;20.80
69590;BMP180;56792;50.644;17.984;2023-08-08T13:01:26;99490.60;;;21.02
69590;BMP180;56792;50.644;17.984;2023-08-08T13:03:57;99485.00;;;21.82
69590;BMP180;56792;50.644;17.984;2023-08-08T13:06:28;99498.00;;;22.50
69590;BMP180;56792;50.644;17.984;2023-08-08T13:08:59;99478.60;;;22.96
69590;BMP180;56792;50.644;17.984;2023-08-08T13:11:31;99474.40;;;23.48
69590;BMP180;56792;50.644;17.984;2023-08-08T13:14:02;99486.20;;;23.90
69590;BMP180;56792;50.644;17.984;2023-08-08T13:16:33;99484.00;;;24.20
69590;BMP180;56792;50.644;17.984;2023-08-08T13:19:04;99473.60;;;24.10
69590;BMP180;56792;50.644;17.984;2023-08-08T13:21:35;99483.00;;;23.90
69590;BMP180;56792;50.644;17.984;2023-08-08T13:24:09;99474.60;;;23.80
69590;BMP180;56792;50.644;17.984;2023-08-08T13:26:42;99475.80;;;23.60
69590;BMP180;56792;50.644;17.984;2023-08-08T13:29:14;99472.20;;;23.20
69590;BMP180;56792;50.644;17.984;2023-08-08T13:31:45;99474.00;;;22.78
69590;BMP180;56792;50.644;17.984;2023-08-08T13:34:16;99472.80;;;22.40
69590;BMP180;56792;50.644;17.984;2023-08-08T13:36:47;99469.20;;;22.56
69590;BMP180;56792;50.644;17.984;2023-08-08T13:39:18;99473.80;;;22.66
69590;BMP180;56792;50.644;17.984;2023-08-08T13:41:49;99459.60;;;22.50
69590;BMP180;56792;50.644;17.984;2023-08-08T13:44:20;99454.20;;;22.68
69590;BMP180;56792;50.644;17.984;2023-08-08T13:46:51;99457.00;;;22.90
69590;BMP180;56792;50.644;17.984;2023-08-08T13:49:22;99456.80;;;22.90
69590;BMP180;56792;50.644;17.984;2023-08-08T13:51:56;99459.20;;;23.12
69590;BMP180;56792;50.644;17.984;2023-08-08T13:54:27;99456.20;;;23.20
69590;BMP180;56792;50.644;17.984;2023-08-08T13:56:58;99461.40;;;23.20
69590;BMP180;56792;50.644;17.984;2023-08-08T13:59:29;99457.20;;;22.90
69590;BMP180;56792;50.644;17.984;2023-08-08T14:02:00;99458.00;;;22.80
69590;BMP180;56792;50.644;17.984;2023-08-08T14:04:31;99455.20;;;22.90
69590;BMP180;56792;50.644;17.984;2023-08-08T14:07:02;99447.80;;;22.80
69590;BMP180;56792;50.644;17.984;2023-08-08T14:09:33;99450.20;;;22.70
69590;BMP180;56792;50.644;17.984;2023-08-08T14:12:06;99445.00;;;22.70
69590;BMP180;56792;50.644;17.984;2023-08-08T14:14:37;99448.80;;;22.70
69590;BMP180;56792;50.644;17.984;2023-08-08T14:17:08;99440.20;;;22.70
69590;BMP180;56792;50.644;17.984;2023-08-08T14:19:39;99444.80;;;22.50
69590;BMP180;56792;50.644;17.984;2023-08-08T14:22:10;99443.60;;;22.32